sensor_id;sensor_type;location;lat;lon;timestamp;P1;durP1;ratioP1;P2;durP2;ratioP2
79361;SDS011;68830;47.566;19.012;2023-07-20T00:00:22;5.20;;;3.08;;
79361;SDS011;68830;47.566;19.012;2023-07-20T00:03:24;4.50;;;2.88;;
79361;SDS011;68830;47.566;19.012;2023-07-20T00:06:29;3.83;;;2.35;;
79361;SDS011;68830;47.566;19.012;2023-07-20T00:09:31;4.10;;;2.70;;
79361;SDS011;68830;47.566;19.012;2023-07-20T00:12:33;4.88;;;2.60;;
79361;SDS011;68830;47.566;19.012;2023-07-20T00:15:35;4.68;;;3.13;;
79361;SDS011;68830;47.566;19.012;2023-07-20T00:18:39;4.53;;;3.00;;
79361;SDS011;68830;47.566;19.012;2023-07-20T00:21:42;4.13;;;2.40;;
79361;SDS011;68830;47.566;19.012;2023-07-20T00:24:44;5.78;;;2.60;;
79361;SDS011;68830;47.566;19.012;2023-07-20T00:27:46;5.43;;;2.72;;
79361;SDS011;68830;47.566;19.012;2023-07-20T00:30:48;6.05;;;2.95;;
79361;SDS011;68830;47.566;19.012;2023-07-20T00:33:50;4.93;;;2.83;;
79361;SDS011;68830;47.566;19.012;2023-07-20T00:36:54;5.15;;;3.00;;
79361;SDS011;68830;47.566;19.012;2023-07-20T00:39:56;3.80;;;2.42;;
79361;SDS011;68830;47.566;19.012;2023-07-20T00:42:58;3.90;;;3.05;;
79361;SDS011;68830;47.566;19.012;2023-07-20T00:46:01;6.05;;;3.20;;
79361;SDS011;68830;47.566;19.012;2023-07-20T00:49:04;4.47;;;2.60;;
79361;SDS011;68830;47.566;19.012;2023-07-20T00:52:09;6.15;;;3.00;;
79361;SDS011;68830;47.566;19.012;2023-07-20T00:55:16;5.60;;;2.90;;
79361;SDS011;68830;47.566;19.012;2023-07-20T00:58:19;3.90;;;2.83;;
79361;SDS011;68830;47.566;19.012;2023-07-20T01:01:22;8.50;;;3.42;;
79361;SDS011;68830;47.566;19.012;2023-07-20T01:04:24;4.55;;;2.65;;
79361;SDS011;68830;47.566;19.012;2023-07-20T01:07:31;4.63;;;3.22;;
79361;SDS011;68830;47.566;19.012;2023-07-20T01:10:38;6.28;;;2.80;;
79361;SDS011;68830;47.566;19.012;2023-07-20T01:13:45;4.68;;;2.60;;
79361;SDS011;68830;47.566;19.012;2023-07-20T01:16:47;4.05;;;2.97;;
79361;SDS011;68830;47.566;19.012;2023-07-20T01:19:51;6.03;;;2.75;;
79361;SDS011;68830;47.566;19.012;2023-07-20T01:23:17;3.33;;;2.78;;
79361;SDS011;68830;47.566;19.012;2023-07-20T01:26:38;3.85;;;2.67;;
79361;SDS011;68830;47.566;19.012;2023-07-20T01:30:08;6.45;;;3.50;;
79361;SDS011;68830;47.566;19.012;2023-07-20T01:33:19;6.40;;;3.80;;
79361;SDS011;68830;47.566;19.012;2023-07-20T01:36:22;5.13;;;3.25;;
79361;SDS011;68830;47.566;19.012;2023-07-20T01:39:26;5.07;;;3.92;;
79361;SDS011;68830;47.566;19.012;2023-07-20T01:42:29;4.40;;;2.80;;
79361;SDS011;68830;47.566;19.012;2023-07-20T01:45:31;4.88;;;3.45;;
79361;SDS011;68830;47.566;19.012;2023-07-20T01:48:35;5.15;;;3.40;;
79361;SDS011;68830;47.566;19.012;2023-07-20T01:51:37;4.72;;;3.20;;
79361;SDS011;68830;47.566;19.012;2023-07-20T01:54:39;5.50;;;2.80;;
79361;SDS011;68830;47.566;19.012;2023-07-20T01:57:41;6.22;;;2.95;;
79361;SDS011;68830;47.566;19.012;2023-07-20T02:00:43;5.20;;;2.70;;
79361;SDS011;68830;47.566;19.012;2023-07-20T02:03:47;5.05;;;3.13;;
79361;SDS011;68830;47.566;19.012;2023-07-20T02:06:49;4.50;;;3.03;;
79361;SDS011;68830;47.566;19.012;2023-07-20T02:09:51;4.30;;;2.83;;
79361;SDS011;68830;47.566;19.012;2023-07-20T02:12:53;5.63;;;2.65;;
79361;SDS011;68830;47.566;19.012;2023-07-20T02:15:56;5.63;;;3.63;;
79361;SDS011;68830;47.566;19.012;2023-07-20T02:19:00;6.43;;;3.05;;
79361;SDS011;68830;47.566;19.012;2023-07-20T02:22:02;4.70;;;3.00;;
79361;SDS011;68830;47.566;19.012;2023-07-20T02:25:04;5.07;;;2.95;;
79361;SDS011;68830;47.566;19.012;2023-07-20T02:28:07;3.95;;;2.65;;
79361;SDS011;68830;47.566;19.012;2023-07-20T02:31:10;5.43;;;3.30;;
79361;SDS011;68830;47.566;19.012;2023-07-20T02:34:14;4.25;;;2.90;;
79361;SDS011;68830;47.566;19.012;2023-07-20T02:37:16;4.07;;;2.60;;
79361;SDS011;68830;47.566;19.012;2023-07-20T02:40:18;7.45;;;3.42;;
79361;SDS011;68830;47.566;19.012;2023-07-20T02:43:20;5.30;;;3.20;;
79361;SDS011;68830;47.566;19.012;2023-07-20T02:46:22;6.07;;;3.50;;
79361;SDS011;68830;47.566;19.012;2023-07-20T02:49:26;5.95;;;2.70;;
79361;SDS011;68830;47.566;19.012;2023-07-20T02:52:28;7.15;;;3.90;;
79361;SDS011;68830;47.566;19.012;2023-07-20T02:55:31;4.85;;;2.40;;
79361;SDS011;68830;47.566;19.012;2023-07-20T02:58:33;4.47;;;3.17;;
79361;SDS011;68830;47.566;19.012;2023-07-20T03:01:38;3.95;;;2.40;;
79361;SDS011;68830;47.566;19.012;2023-07-20T03:04:41;5.28;;;3.30;;
79361;SDS011;68830;47.566;19.012;2023-07-20T03:07:44;5.35;;;2.90;;
79361;SDS011;68830;47.566;19.012;2023-07-20T03:10:46;6.40;;;3.38;;
79361;SDS011;68830;47.566;19.012;2023-07-20T03:13:48;5.50;;;3.30;;
79361;SDS011;68830;47.566;19.012;2023-07-20T03:16:50;4.68;;;3.17;;
79361;SDS011;68830;47.566;19.012;2023-07-20T03:19:54;5.00;;;2.97;;
79361;SDS011;68830;47.566;19.012;2023-07-20T03:22:56;3.90;;;3.17;;
79361;SDS011;68830;47.566;19.012;2023-07-20T03:25:58;8.63;;;3.03;;
79361;SDS011;68830;47.566;19.012;2023-07-20T03:29:00;6.22;;;3.85;;
79361;SDS011;68830;47.566;19.012;2023-07-20T03:32:04;4.70;;;2.70;;
79361;SDS011;68830;47.566;19.012;2023-07-20T03:35:08;5.00;;;2.63;;
79361;SDS011;68830;47.566;19.012;2023-07-20T03:38:10;3.75;;;2.53;;
79361;SDS011;68830;47.566;19.012;2023-07-20T03:41:13;3.85;;;2.63;;
79361;SDS011;68830;47.566;19.012;2023-07-20T03:44:17;3.75;;;2.90;;
79361;SDS011;68830;47.566;19.012;2023-07-20T03:47:19;2.92;;;2.20;;
79361;SDS011;68830;47.566;19.012;2023-07-20T03:50:23;6.63;;;3.33;;
79361;SDS011;68830;47.566;19.012;2023-07-20T03:53:24;5.57;;;2.83;;
79361;SDS011;68830;47.566;19.012;2023-07-20T03:56:27;6.55;;;2.92;;
79361;SDS011;68830;47.566;19.012;2023-07-20T03:59:29;3.83;;;3.03;;
79361;SDS011;68830;47.566;19.012;2023-07-20T04:02:31;4.10;;;2.90;;
79361;SDS011;68830;47.566;19.012;2023-07-20T04:05:34;3.55;;;2.60;;
79361;SDS011;68830;47.566;19.012;2023-07-20T04:08:36;3.50;;;2.95;;
79361;SDS011;68830;47.566;19.012;2023-07-20T04:11:39;6.38;;;2.80;;
79361;SDS011;68830;47.566;19.012;2023-07-20T04:14:42;3.92;;;2.60;;
79361;SDS011;68830;47.566;19.012;2023-07-20T04:17:44;4.20;;;3.15;;
79361;SDS011;68830;47.566;19.012;2023-07-20T04:20:48;6.72;;;2.67;;
79361;SDS011;68830;47.566;19.012;2023-07-20T04:23:50;3.85;;;3.00;;
79361;SDS011;68830;47.566;19.012;2023-07-20T04:26:52;4.45;;;2.75;;
79361;SDS011;68830;47.566;19.012;2023-07-20T04:29:54;3.47;;;2.50;;
79361;SDS011;68830;47.566;19.012;2023-07-20T04:32:56;3.47;;;2.78;;
79361;SDS011;68830;47.566;19.012;2023-07-20T04:36:00;4.50;;;2.67;;
79361;SDS011;68830;47.566;19.012;2023-07-20T04:39:02;5.47;;;2.85;;
79361;SDS011;68830;47.566;19.012;2023-07-20T04:42:15;5.25;;;3.20;;
79361;SDS011;68830;47.566;19.012;2023-07-20T04:45:17;4.65;;;3.42;;
79361;SDS011;68830;47.566;19.012;2023-07-20T04:48:20;4.45;;;2.72;;
79361;SDS011;68830;47.566;19.012;2023-07-20T04:51:24;5.90;;;2.83;;
79361;SDS011;68830;47.566;19.012;2023-07-20T04:54:26;3.65;;;2.80;;
79361;SDS011;68830;47.566;19.012;2023-07-20T04:57:28;6.15;;;3.20;;
79361;SDS011;68830;47.566;19.012;2023-07-20T05:00:31;8.93;;;3.33;;
79361;SDS011;68830;47.566;19.012;2023-07-20T05:03:33;3.97;;;2.55;;
79361;SDS011;68830;47.566;19.012;2023-07-20T05:06:37;5.20;;;3.15;;
79361;SDS011;68830;47.566;19.012;2023-07-20T05:09:40;4.75;;;2.85;;
79361;SDS011;68830;47.566;19.012;2023-07-20T05:12:42;3.90;;;2.72;;
79361;SDS011;68830;47.566;19.012;2023-07-20T05:15:44;10.15;;;3.30;;
79361;SDS011;68830;47.566;19.012;2023-07-20T05:18:46;5.32;;;3.20;;
79361;SDS011;68830;47.566;19.012;2023-07-20T05:21:50;4.65;;;3.20;;
79361;SDS011;68830;47.566;19.012;2023-07-20T05:24:52;3.58;;;2.92;;
79361;SDS011;68830;47.566;19.012;2023-07-20T05:27:54;7.38;;;3.25;;
79361;SDS011;68830;47.566;19.012;2023-07-20T05:30:56;4.70;;;3.03;;
79361;SDS011;68830;47.566;19.012;2023-07-20T05:34:01;7.05;;;2.97;;
79361;SDS011;68830;47.566;19.012;2023-07-20T05:37:07;4.15;;;3.00;;
79361;SDS011;68830;47.566;19.012;2023-07-20T05:40:09;4.20;;;2.92;;
79361;SDS011;68830;47.566;19.012;2023-07-20T05:43:13;5.22;;;3.38;;
79361;SDS011;68830;47.566;19.012;2023-07-20T05:46:15;5.00;;;3.55;;
79361;SDS011;68830;47.566;19.012;2023-07-20T05:49:17;5.40;;;3.90;;
79361;SDS011;68830;47.566;19.012;2023-07-20T05:52:21;5.20;;;3.10;;
79361;SDS011;68830;47.566;19.012;2023-07-20T05:55:23;5.63;;;3.03;;
79361;SDS011;68830;47.566;19.012;2023-07-20T05:58:25;4.30;;;3.25;;
79361;SDS011;68830;47.566;19.012;2023-07-20T06:01:28;5.25;;;3.10;;
79361;SDS011;68830;47.566;19.012;2023-07-20T06:07:42;4.30;;;3.90;;
79361;SDS011;68830;47.566;19.012;2023-07-20T06:10:44;5.85;;;3.88;;
79361;SDS011;68830;47.566;19.012;2023-07-20T06:13:52;6.57;;;3.85;;
79361;SDS011;68830;47.566;19.012;2023-07-20T06:16:54;5.22;;;4.35;;
79361;SDS011;68830;47.566;19.012;2023-07-20T06:19:56;6.15;;;4.15;;
79361;SDS011;68830;47.566;19.012;2023-07-20T06:23:00;5.00;;;3.72;;
79361;SDS011;68830;47.566;19.012;2023-07-20T06:26:02;5.03;;;3.88;;
79361;SDS011;68830;47.566;19.012;2023-07-20T06:29:04;6.50;;;4.50;;
79361;SDS011;68830;47.566;19.012;2023-07-20T06:32:07;5.60;;;3.50;;
79361;SDS011;68830;47.566;19.012;2023-07-20T06:35:10;5.22;;;3.47;;
79361;SDS011;68830;47.566;19.012;2023-07-20T06:38:13;6.57;;;2.95;;
79361;SDS011;68830;47.566;19.012;2023-07-20T06:41:18;4.63;;;3.30;;
79361;SDS011;68830;47.566;19.012;2023-07-20T06:44:23;5.90;;;3.30;;
79361;SDS011;68830;47.566;19.012;2023-07-20T06:47:25;7.00;;;2.90;;
79361;SDS011;68830;47.566;19.012;2023-07-20T06:50:27;5.43;;;3.70;;
79361;SDS011;68830;47.566;19.012;2023-07-20T06:53:31;5.05;;;3.13;;
79361;SDS011;68830;47.566;19.012;2023-07-20T06:56:33;7.63;;;3.58;;
79361;SDS011;68830;47.566;19.012;2023-07-20T06:59:36;4.78;;;3.22;;
79361;SDS011;68830;47.566;19.012;2023-07-20T07:02:42;5.18;;;3.30;;
79361;SDS011;68830;47.566;19.012;2023-07-20T07:05:47;5.85;;;3.50;;
79361;SDS011;68830;47.566;19.012;2023-07-20T07:11:55;6.55;;;3.63;;
79361;SDS011;68830;47.566;19.012;2023-07-20T07:14:57;4.10;;;3.35;;
79361;SDS011;68830;47.566;19.012;2023-07-20T07:17:59;4.70;;;4.00;;
79361;SDS011;68830;47.566;19.012;2023-07-20T07:21:01;3.90;;;3.15;;
79361;SDS011;68830;47.566;19.012;2023-07-20T07:24:06;4.93;;;3.42;;
79361;SDS011;68830;47.566;19.012;2023-07-20T07:27:09;7.30;;;3.42;;
79361;SDS011;68830;47.566;19.012;2023-07-20T07:30:12;4.30;;;3.40;;
79361;SDS011;68830;47.566;19.012;2023-07-20T07:33:14;6.50;;;3.38;;
79361;SDS011;68830;47.566;19.012;2023-07-20T07:36:16;3.92;;;3.53;;
79361;SDS011;68830;47.566;19.012;2023-07-20T07:39:19;4.22;;;3.67;;
79361;SDS011;68830;47.566;19.012;2023-07-20T07:42:24;5.65;;;3.05;;
79361;SDS011;68830;47.566;19.012;2023-07-20T07:45:26;5.68;;;3.50;;
79361;SDS011;68830;47.566;19.012;2023-07-20T07:48:28;4.72;;;3.17;;
79361;SDS011;68830;47.566;19.012;2023-07-20T07:51:30;5.50;;;3.03;;
79361;SDS011;68830;47.566;19.012;2023-07-20T07:54:34;7.88;;;3.33;;
79361;SDS011;68830;47.566;19.012;2023-07-20T07:57:36;4.18;;;2.80;;
79361;SDS011;68830;47.566;19.012;2023-07-20T08:00:38;4.15;;;2.95;;
79361;SDS011;68830;47.566;19.012;2023-07-20T08:03:40;4.40;;;3.47;;
79361;SDS011;68830;47.566;19.012;2023-07-20T08:06:42;5.63;;;3.00;;
79361;SDS011;68830;47.566;19.012;2023-07-20T08:09:46;5.63;;;2.80;;
79361;SDS011;68830;47.566;19.012;2023-07-20T08:12:47;7.80;;;2.92;;
79361;SDS011;68830;47.566;19.012;2023-07-20T08:15:50;4.45;;;3.08;;
79361;SDS011;68830;47.566;19.012;2023-07-20T08:18:55;4.13;;;3.28;;
79361;SDS011;68830;47.566;19.012;2023-07-20T08:21:58;5.82;;;2.88;;
79361;SDS011;68830;47.566;19.012;2023-07-20T08:25:02;6.75;;;3.20;;
79361;SDS011;68830;47.566;19.012;2023-07-20T08:28:04;4.18;;;2.67;;
79361;SDS011;68830;47.566;19.012;2023-07-20T08:31:06;3.58;;;2.33;;
79361;SDS011;68830;47.566;19.012;2023-07-20T08:34:11;8.18;;;3.22;;
79361;SDS011;68830;47.566;19.012;2023-07-20T08:37:29;6.15;;;3.10;;
79361;SDS011;68830;47.566;19.012;2023-07-20T08:40:33;4.90;;;3.08;;
79361;SDS011;68830;47.566;19.012;2023-07-20T08:43:35;4.80;;;2.67;;
79361;SDS011;68830;47.566;19.012;2023-07-20T08:46:41;10.27;;;2.70;;
79361;SDS011;68830;47.566;19.012;2023-07-20T08:49:44;7.47;;;2.78;;
79361;SDS011;68830;47.566;19.012;2023-07-20T08:52:50;2.67;;;2.17;;
79361;SDS011;68830;47.566;19.012;2023-07-20T08:55:55;4.00;;;2.33;;
79361;SDS011;68830;47.566;19.012;2023-07-20T08:58:58;4.43;;;2.63;;
79361;SDS011;68830;47.566;19.012;2023-07-20T09:02:01;4.38;;;2.63;;
79361;SDS011;68830;47.566;19.012;2023-07-20T09:05:06;9.98;;;3.55;;
79361;SDS011;68830;47.566;19.012;2023-07-20T09:08:11;4.57;;;2.75;;
79361;SDS011;68830;47.566;19.012;2023-07-20T09:11:14;4.18;;;2.58;;
79361;SDS011;68830;47.566;19.012;2023-07-20T09:14:17;4.82;;;2.50;;
79361;SDS011;68830;47.566;19.012;2023-07-20T09:17:19;4.68;;;2.80;;
79361;SDS011;68830;47.566;19.012;2023-07-20T09:20:21;5.00;;;3.05;;
79361;SDS011;68830;47.566;19.012;2023-07-20T09:23:29;4.70;;;2.75;;
79361;SDS011;68830;47.566;19.012;2023-07-20T09:26:34;6.03;;;2.85;;
79361;SDS011;68830;47.566;19.012;2023-07-20T09:29:48;4.45;;;2.70;;
79361;SDS011;68830;47.566;19.012;2023-07-20T09:32:50;4.57;;;2.50;;
79361;SDS011;68830;47.566;19.012;2023-07-20T09:35:54;4.82;;;3.00;;
79361;SDS011;68830;47.566;19.012;2023-07-20T09:39:24;7.57;;;3.25;;
79361;SDS011;68830;47.566;19.012;2023-07-20T09:42:30;4.28;;;2.78;;
79361;SDS011;68830;47.566;19.012;2023-07-20T09:45:35;5.93;;;2.70;;
79361;SDS011;68830;47.566;19.012;2023-07-20T09:48:58;3.53;;;3.22;;
79361;SDS011;68830;47.566;19.012;2023-07-20T09:52:03;4.63;;;3.08;;
79361;SDS011;68830;47.566;19.012;2023-07-20T09:55:07;4.53;;;2.83;;
79361;SDS011;68830;47.566;19.012;2023-07-20T09:58:11;4.25;;;2.78;;
79361;SDS011;68830;47.566;19.012;2023-07-20T10:01:13;5.13;;;2.83;;
79361;SDS011;68830;47.566;19.012;2023-07-20T10:04:26;5.32;;;3.05;;
79361;SDS011;68830;47.566;19.012;2023-07-20T10:07:30;4.88;;;2.78;;
79361;SDS011;68830;47.566;19.012;2023-07-20T10:10:33;5.55;;;3.30;;
79361;SDS011;68830;47.566;19.012;2023-07-20T10:13:37;4.55;;;2.80;;
79361;SDS011;68830;47.566;19.012;2023-07-20T10:19:51;4.72;;;2.65;;
79361;SDS011;68830;47.566;19.012;2023-07-20T10:22:56;3.60;;;2.35;;
79361;SDS011;68830;47.566;19.012;2023-07-20T10:25:58;5.55;;;3.00;;
79361;SDS011;68830;47.566;19.012;2023-07-20T10:29:05;4.00;;;2.25;;
79361;SDS011;68830;47.566;19.012;2023-07-20T10:32:08;7.93;;;2.47;;
79361;SDS011;68830;47.566;19.012;2023-07-20T10:35:14;4.22;;;2.38;;
79361;SDS011;68830;47.566;19.012;2023-07-20T10:38:17;6.13;;;2.88;;
79361;SDS011;68830;47.566;19.012;2023-07-20T10:41:20;3.85;;;2.55;;
79361;SDS011;68830;47.566;19.012;2023-07-20T10:44:24;6.30;;;2.72;;
79361;SDS011;68830;47.566;19.012;2023-07-20T10:47:26;5.28;;;2.65;;
79361;SDS011;68830;47.566;19.012;2023-07-20T10:50:28;5.32;;;2.95;;
79361;SDS011;68830;47.566;19.012;2023-07-20T10:53:33;5.82;;;2.72;;
79361;SDS011;68830;47.566;19.012;2023-07-20T10:56:37;6.35;;;2.63;;
79361;SDS011;68830;47.566;19.012;2023-07-20T10:59:40;2.58;;;2.10;;
79361;SDS011;68830;47.566;19.012;2023-07-20T11:02:43;6.68;;;2.40;;
79361;SDS011;68830;47.566;19.012;2023-07-20T11:05:48;3.40;;;2.95;;
79361;SDS011;68830;47.566;19.012;2023-07-20T11:08:54;4.57;;;2.42;;
79361;SDS011;68830;47.566;19.012;2023-07-20T11:12:08;5.18;;;2.40;;
79361;SDS011;68830;47.566;19.012;2023-07-20T11:15:13;4.45;;;3.22;;
79361;SDS011;68830;47.566;19.012;2023-07-20T11:18:16;4.97;;;2.60;;
79361;SDS011;68830;47.566;19.012;2023-07-20T11:21:20;9.95;;;2.42;;
79361;SDS011;68830;47.566;19.012;2023-07-20T11:24:23;4.55;;;2.05;;
79361;SDS011;68830;47.566;19.012;2023-07-20T11:27:25;2.60;;;2.25;;
79361;SDS011;68830;47.566;19.012;2023-07-20T11:30:33;3.90;;;2.28;;
79361;SDS011;68830;47.566;19.012;2023-07-20T11:33:37;4.03;;;1.90;;
79361;SDS011;68830;47.566;19.012;2023-07-20T11:36:39;6.20;;;2.28;;
79361;SDS011;68830;47.566;19.012;2023-07-20T11:39:45;5.00;;;2.40;;
79361;SDS011;68830;47.566;19.012;2023-07-20T11:42:48;3.75;;;1.98;;
79361;SDS011;68830;47.566;19.012;2023-07-20T11:45:56;5.80;;;2.75;;
79361;SDS011;68830;47.566;19.012;2023-07-20T11:48:58;5.05;;;2.30;;
79361;SDS011;68830;47.566;19.012;2023-07-20T11:52:03;4.53;;;2.30;;
79361;SDS011;68830;47.566;19.012;2023-07-20T11:55:07;3.85;;;2.25;;
79361;SDS011;68830;47.566;19.012;2023-07-20T11:58:09;4.43;;;2.83;;
79361;SDS011;68830;47.566;19.012;2023-07-20T12:01:13;3.10;;;2.15;;
79361;SDS011;68830;47.566;19.012;2023-07-20T12:04:15;4.72;;;2.22;;
79361;SDS011;68830;47.566;19.012;2023-07-20T12:07:18;3.67;;;2.15;;
79361;SDS011;68830;47.566;19.012;2023-07-20T12:10:23;3.05;;;2.05;;
79361;SDS011;68830;47.566;19.012;2023-07-20T12:13:35;9.63;;;2.97;;
79361;SDS011;68830;47.566;19.012;2023-07-20T12:16:39;10.65;;;2.63;;
79361;SDS011;68830;47.566;19.012;2023-07-20T12:19:41;4.05;;;2.60;;
79361;SDS011;68830;47.566;19.012;2023-07-20T12:22:43;3.25;;;2.42;;
79361;SDS011;68830;47.566;19.012;2023-07-20T12:25:46;5.60;;;2.10;;
79361;SDS011;68830;47.566;19.012;2023-07-20T12:28:49;6.90;;;2.42;;
79361;SDS011;68830;47.566;19.012;2023-07-20T12:31:53;3.30;;;2.13;;
79361;SDS011;68830;47.566;19.012;2023-07-20T12:34:55;2.63;;;2.28;;
79361;SDS011;68830;47.566;19.012;2023-07-20T12:37:57;2.50;;;1.90;;
79361;SDS011;68830;47.566;19.012;2023-07-20T12:41:00;3.35;;;1.90;;
79361;SDS011;68830;47.566;19.012;2023-07-20T12:44:02;6.00;;;2.10;;
79361;SDS011;68830;47.566;19.012;2023-07-20T12:47:06;4.43;;;2.45;;
79361;SDS011;68830;47.566;19.012;2023-07-20T12:50:09;4.38;;;2.40;;
79361;SDS011;68830;47.566;19.012;2023-07-20T12:53:11;3.35;;;1.98;;
79361;SDS011;68830;47.566;19.012;2023-07-20T12:56:13;2.25;;;1.90;;
79361;SDS011;68830;47.566;19.012;2023-07-20T12:59:18;4.43;;;2.40;;
79361;SDS011;68830;47.566;19.012;2023-07-20T13:02:22;4.15;;;2.33;;
79361;SDS011;68830;47.566;19.012;2023-07-20T13:05:24;3.00;;;2.20;;
79361;SDS011;68830;47.566;19.012;2023-07-20T13:08:29;3.80;;;2.17;;
79361;SDS011;68830;47.566;19.012;2023-07-20T13:11:31;4.72;;;2.28;;
79361;SDS011;68830;47.566;19.012;2023-07-20T13:14:33;4.32;;;2.72;;
79361;SDS011;68830;47.566;19.012;2023-07-20T13:17:37;2.65;;;1.92;;
79361;SDS011;68830;47.566;19.012;2023-07-20T13:20:40;3.05;;;2.30;;
79361;SDS011;68830;47.566;19.012;2023-07-20T13:23:42;3.38;;;2.20;;
79361;SDS011;68830;47.566;19.012;2023-07-20T13:26:44;4.18;;;1.92;;
79361;SDS011;68830;47.566;19.012;2023-07-20T13:29:47;4.35;;;2.03;;
79361;SDS011;68830;47.566;19.012;2023-07-20T13:32:50;2.92;;;2.22;;
79361;SDS011;68830;47.566;19.012;2023-07-20T13:35:55;7.68;;;2.15;;
79361;SDS011;68830;47.566;19.012;2023-07-20T13:38:57;4.68;;;2.20;;
79361;SDS011;68830;47.566;19.012;2023-07-20T13:42:00;5.03;;;2.80;;
79361;SDS011;68830;47.566;19.012;2023-07-20T13:45:06;2.60;;;1.88;;
79361;SDS011;68830;47.566;19.012;2023-07-20T13:48:10;2.08;;;1.88;;
79361;SDS011;68830;47.566;19.012;2023-07-20T13:51:13;4.20;;;2.63;;
79361;SDS011;68830;47.566;19.012;2023-07-20T13:54:27;3.30;;;1.98;;
79361;SDS011;68830;47.566;19.012;2023-07-20T13:57:29;4.28;;;1.92;;
79361;SDS011;68830;47.566;19.012;2023-07-20T14:00:32;5.63;;;2.22;;
79361;SDS011;68830;47.566;19.012;2023-07-20T14:03:37;4.95;;;1.88;;
79361;SDS011;68830;47.566;19.012;2023-07-20T14:06:39;4.80;;;2.17;;
79361;SDS011;68830;47.566;19.012;2023-07-20T14:09:41;4.75;;;2.42;;
79361;SDS011;68830;47.566;19.012;2023-07-20T14:12:46;4.60;;;2.40;;
79361;SDS011;68830;47.566;19.012;2023-07-20T14:15:48;2.50;;;1.85;;
79361;SDS011;68830;47.566;19.012;2023-07-20T14:18:53;3.72;;;2.10;;
79361;SDS011;68830;47.566;19.012;2023-07-20T14:21:57;4.03;;;1.88;;
79361;SDS011;68830;47.566;19.012;2023-07-20T14:25:01;2.25;;;1.75;;
79361;SDS011;68830;47.566;19.012;2023-07-20T14:28:03;1.88;;;1.67;;
79361;SDS011;68830;47.566;19.012;2023-07-20T14:31:05;3.80;;;2.00;;
79361;SDS011;68830;47.566;19.012;2023-07-20T14:34:09;2.13;;;1.70;;
79361;SDS011;68830;47.566;19.012;2023-07-20T14:37:11;3.22;;;2.10;;
79361;SDS011;68830;47.566;19.012;2023-07-20T14:40:15;5.00;;;2.10;;
79361;SDS011;68830;47.566;19.012;2023-07-20T14:43:17;5.15;;;2.17;;
79361;SDS011;68830;47.566;19.012;2023-07-20T14:46:19;2.60;;;1.90;;
79361;SDS011;68830;47.566;19.012;2023-07-20T14:49:24;2.63;;;2.00;;
79361;SDS011;68830;47.566;19.012;2023-07-20T14:52:27;3.05;;;1.60;;
79361;SDS011;68830;47.566;19.012;2023-07-20T14:55:30;2.35;;;1.80;;
79361;SDS011;68830;47.566;19.012;2023-07-20T14:58:32;3.88;;;2.28;;
79361;SDS011;68830;47.566;19.012;2023-07-20T15:01:36;4.32;;;2.20;;
79361;SDS011;68830;47.566;19.012;2023-07-20T15:04:39;11.32;;;2.30;;
79361;SDS011;68830;47.566;19.012;2023-07-20T15:07:47;5.10;;;1.85;;
79361;SDS011;68830;47.566;19.012;2023-07-20T15:10:49;3.58;;;2.35;;
79361;SDS011;68830;47.566;19.012;2023-07-20T15:13:51;4.05;;;2.10;;
79361;SDS011;68830;47.566;19.012;2023-07-20T15:16:56;2.67;;;1.90;;
79361;SDS011;68830;47.566;19.012;2023-07-20T15:19:59;3.05;;;1.85;;
79361;SDS011;68830;47.566;19.012;2023-07-20T15:23:02;3.50;;;1.70;;
79361;SDS011;68830;47.566;19.012;2023-07-20T15:26:05;2.83;;;1.98;;
79361;SDS011;68830;47.566;19.012;2023-07-20T15:29:07;2.13;;;1.75;;
79361;SDS011;68830;47.566;19.012;2023-07-20T15:32:29;3.45;;;1.92;;
79361;SDS011;68830;47.566;19.012;2023-07-20T15:35:53;4.55;;;2.90;;
79361;SDS011;68830;47.566;19.012;2023-07-20T15:38:55;2.05;;;1.77;;
79361;SDS011;68830;47.566;19.012;2023-07-20T15:41:59;3.42;;;2.30;;
79361;SDS011;68830;47.566;19.012;2023-07-20T15:45:01;4.03;;;1.70;;
79361;SDS011;68830;47.566;19.012;2023-07-20T15:48:03;3.22;;;1.75;;
79361;SDS011;68830;47.566;19.012;2023-07-20T15:51:06;6.70;;;2.10;;
79361;SDS011;68830;47.566;19.012;2023-07-20T15:54:09;3.58;;;1.83;;
79361;SDS011;68830;47.566;19.012;2023-07-20T15:57:12;3.60;;;1.95;;
79361;SDS011;68830;47.566;19.012;2023-07-20T16:00:14;4.03;;;2.17;;
79361;SDS011;68830;47.566;19.012;2023-07-20T16:03:18;3.60;;;2.40;;
79361;SDS011;68830;47.566;19.012;2023-07-20T16:06:22;4.07;;;2.03;;
79361;SDS011;68830;47.566;19.012;2023-07-20T16:09:24;2.40;;;2.10;;
79361;SDS011;68830;47.566;19.012;2023-07-20T16:12:26;3.47;;;1.88;;
79361;SDS011;68830;47.566;19.012;2023-07-20T16:15:30;3.28;;;2.20;;
79361;SDS011;68830;47.566;19.012;2023-07-20T16:18:34;2.83;;;1.92;;
79361;SDS011;68830;47.566;19.012;2023-07-20T16:21:38;3.08;;;2.00;;
79361;SDS011;68830;47.566;19.012;2023-07-20T16:24:40;6.35;;;2.00;;
79361;SDS011;68830;47.566;19.012;2023-07-20T16:27:42;6.05;;;2.50;;
79361;SDS011;68830;47.566;19.012;2023-07-20T16:30:44;2.55;;;1.95;;
79361;SDS011;68830;47.566;19.012;2023-07-20T16:33:46;3.95;;;2.42;;
79361;SDS011;68830;47.566;19.012;2023-07-20T16:36:50;5.18;;;2.38;;
79361;SDS011;68830;47.566;19.012;2023-07-20T16:39:55;4.80;;;2.83;;
79361;SDS011;68830;47.566;19.012;2023-07-20T16:42:57;6.78;;;3.28;;
79361;SDS011;68830;47.566;19.012;2023-07-20T16:46:02;10.80;;;2.25;;
79361;SDS011;68830;47.566;19.012;2023-07-20T16:49:08;3.90;;;1.95;;
79361;SDS011;68830;47.566;19.012;2023-07-20T16:52:12;3.75;;;2.30;;
79361;SDS011;68830;47.566;19.012;2023-07-20T16:55:14;2.97;;;2.10;;
79361;SDS011;68830;47.566;19.012;2023-07-20T16:58:16;6.15;;;3.45;;
79361;SDS011;68830;47.566;19.012;2023-07-20T17:01:18;4.82;;;2.55;;
79361;SDS011;68830;47.566;19.012;2023-07-20T17:04:20;4.55;;;2.15;;
79361;SDS011;68830;47.566;19.012;2023-07-20T17:07:24;3.85;;;2.35;;
79361;SDS011;68830;47.566;19.012;2023-07-20T17:10:27;3.63;;;2.15;;
79361;SDS011;68830;47.566;19.012;2023-07-20T17:13:30;6.65;;;2.67;;
79361;SDS011;68830;47.566;19.012;2023-07-20T17:16:34;3.05;;;2.10;;
79361;SDS011;68830;47.566;19.012;2023-07-20T17:19:36;3.20;;;2.00;;
79361;SDS011;68830;47.566;19.012;2023-07-20T17:22:39;4.97;;;1.92;;
79361;SDS011;68830;47.566;19.012;2023-07-20T17:25:42;4.43;;;2.40;;
79361;SDS011;68830;47.566;19.012;2023-07-20T17:29:04;5.30;;;2.00;;
79361;SDS011;68830;47.566;19.012;2023-07-20T17:32:07;3.92;;;2.25;;
79361;SDS011;68830;47.566;19.012;2023-07-20T17:35:10;8.82;;;2.47;;
79361;SDS011;68830;47.566;19.012;2023-07-20T17:41:20;2.83;;;1.73;;
79361;SDS011;68830;47.566;19.012;2023-07-20T17:44:23;3.60;;;2.10;;
79361;SDS011;68830;47.566;19.012;2023-07-20T17:47:26;3.53;;;2.20;;
79361;SDS011;68830;47.566;19.012;2023-07-20T17:50:29;4.40;;;1.90;;
79361;SDS011;68830;47.566;19.012;2023-07-20T17:53:32;3.97;;;2.00;;
79361;SDS011;68830;47.566;19.012;2023-07-20T17:56:34;3.92;;;2.22;;
79361;SDS011;68830;47.566;19.012;2023-07-20T17:59:37;2.60;;;2.20;;
79361;SDS011;68830;47.566;19.012;2023-07-20T18:03:00;4.60;;;2.30;;
79361;SDS011;68830;47.566;19.012;2023-07-20T18:06:04;2.78;;;2.13;;
79361;SDS011;68830;47.566;19.012;2023-07-20T18:09:10;2.80;;;1.95;;
79361;SDS011;68830;47.566;19.012;2023-07-20T18:12:12;3.22;;;2.03;;
79361;SDS011;68830;47.566;19.012;2023-07-20T18:15:15;4.78;;;2.20;;
79361;SDS011;68830;47.566;19.012;2023-07-20T18:18:19;4.57;;;2.45;;
79361;SDS011;68830;47.566;19.012;2023-07-20T18:21:22;4.82;;;2.10;;